Aeroporto :
LOGIN :

Iscrizione | Disclaimer

   EN    FR    IT 

 










Sommario :    VFR   VFR Marginale   IFR   IFR Intensivo   IFR Molto Intensivo
Visibilità : 
Base nubi : 
>= 8 km
>= 3000ft
5 / 8 km
1000 / 3000 ft
1500m / 5 km
500 / 1000 ft
800 / 1500m
200 / 500 ft
< 800m
< 200 ft
Simboli :   Temporali  Nebbia  Neve Forte  Precipitazioni Forti  Vento > 20 kt
SIGMETs :   Varie  Temporali  Ghiacco  Turbolenza  Onda orograficha  Ceneri Vulcaniche







- Altitudine del aeroporto : -15 ft
- Codice IATA : RTM


EHRD - Rotterdam Zestienhoven

ULTIMO METAR :
  • 240825Z AUTO 16013KT 130V190 9999 NCD 19/11 Q0996 NOSIG

METARs OBSOLETI :
  • 240755Z AUTO 16011KT 130V190 9999 NSC 18/11 Q0996 NOSIG
  • 240725Z AUTO 15011KT 130V190 9999 NSC 17/10 Q0996 NOSIG
  • 240655Z AUTO 15008KT 120V180 9999 NSC 17/10 Q0996 NOSIG
  • 240625Z AUTO 16008KT 9999 NCD 16/11 Q0996 NOSIG
  • 240555Z AUTO 16008KT 130V200 9999 NCD 15/10 Q0996 NOSIG

TAF TAF EHRD
Valido dal 24 a 06 ore il 25 a 12 ore UTC


240458Z 2406/2512 16006KT CAVOK
BECMG 2406/2408 16015KT
BECMG 2408/2410 16020G30KT
PROB40
TEMPO 2415/2417 18025G38KT 6000 SHRA SCT050CB
BECMG 2417/2420 16008KT
TEMPO 2417/2422 6000 RA SHRA SCT030 SCT070CB
BECMG 2506/2509 14012G22KT
Nessun NOTAM noto per questo aeroporto.



MetMap, La meteo Aeronautica in un colpo d'occhio ! - Copyright ORBIFLY Dicembre 2007 - Disclaimer

ORBIFLY MET'MAP TEAM :

Programmazione e sviluppo : Alexandra Zaïnal
Concezione e sviluppo : Baudouin d'Aumeries
Co-Programmazione e sviluppo : Marc-Olivier Méhu
Supporto tecnico e logistico : Manuel Goepfert
Aiuto per la traduzione : Arnaldo La Scala

Contatto : metmap@orbifly.com




FONTI E CREDITI :

   NOAA